Time,TemperatureF,DewpointF,PressureIn,WindDirection,WindDirectionDegrees,WindSpeedMPH,WindSpeedGustMPH,Humidity,HourlyPrecipIn,Conditions,Clouds,dailyrainin,SoftwareType,DateUTC
2013-01-23 00:05:00,46.7,32.7,30.30,NW,308,0.0,0.0,58,0.00,,,0.00,Wunderground v.1.15,2013-01-23 05:05:00,
2013-01-23 00:10:00,46.6,32.6,30.30,NW,308,0.0,0.0,58,0.00,,,0.00,Wunderground v.1.15,2013-01-23 05:10:00,
2013-01-23 00:20:00,46.3,32.7,30.30,WNW,298,0.0,1.0,59,0.00,,,0.00,Wunderground v.1.15,2013-01-23 05:20:00,
2013-01-23 00:25:00,46.2,32.7,30.30,WNW,298,0.0,1.0,59,0.00,,,0.00,Wunderground v.1.15,2013-01-23 05:25:00,
2013-01-23 00:30:00,46.1,32.6,30.30,WNW,298,0.0,0.0,59,0.00,,,0.00,Wunderground v.1.15,2013-01-23 05:30:00,
2013-01-23 00:40:00,46.0,32.5,30.30,WNW,302,1.0,1.0,59,0.00,,,0.00,Wunderground v.1.15,2013-01-23 05:40:00,
2013-01-23 00:50:00,45.7,32.2,30.29,WNW,302,0.0,0.0,59,0.00,,,0.00,Wunderground v.1.15,2013-01-23 05:50:00,
2013-01-23 01:00:00,45.5,32.4,30.30,WNW,302,0.0,0.0,60,0.00,,,0.00,Wunderground v.1.15,2013-01-23 06:00:00,
2013-01-23 01:05:00,45.5,32.4,30.30,WNW,302,0.0,0.0,60,0.00,,,0.00,Wunderground v.1.15,2013-01-23 06:05:00,
2013-01-23 01:15:00,45.3,32.2,30.30,WNW,302,0.0,0.0,60,0.00,,,0.00,Wunderground v.1.15,2013-01-23 06:15:00,
2013-01-23 01:20:00,45.2,32.1,30.30,WNW,302,0.0,0.0,60,0.00,,,0.00,Wunderground v.1.15,2013-01-23 06:20:00,
2013-01-23 01:25:00,45.1,32.0,30.30,WNW,302,0.0,0.0,60,0.00,,,0.00,Wunderground v.1.15,2013-01-23 06:25:00,
2013-01-23 01:35:00,44.9,32.3,30.30,WNW,302,0.0,0.0,61,0.00,,,0.00,Wunderground v.1.15,2013-01-23 06:35:00,
2013-01-23 01:45:00,44.6,32.0,30.30,WNW,302,0.0,0.0,61,0.00,,,0.00,Wunderground v.1.15,2013-01-23 06:45:00,
2013-01-23 01:55:00,44.3,31.7,30.30,WNW,302,0.0,0.0,61,0.00,,,0.00,Wunderground v.1.15,2013-01-23 06:55:00,
2013-01-23 02:05:00,44.1,31.9,30.30,WNW,302,0.0,0.0,62,0.00,,,0.00,Wunderground v.1.15,2013-01-23 07:05:00,
2013-01-23 02:15:00,43.8,32.0,30.31,WNW,302,0.0,0.0,63,0.00,,,0.00,Wunderground v.1.15,2013-01-23 07:15:00,
2013-01-23 02:20:00,43.7,32.3,30.31,WNW,302,0.0,0.0,64,0.00,,,0.00,Wunderground v.1.15,2013-01-23 07:20:00,
2013-01-23 02:30:00,43.3,31.9,30.30,WNW,302,0.0,0.0,64,0.00,,,0.00,Wunderground v.1.15,2013-01-23 07:30:00,
2013-01-23 02:35:00,43.2,32.2,30.30,WNW,302,0.0,0.0,65,0.00,,,0.00,Wunderground v.1.15,2013-01-23 07:35:00,
2013-01-23 02:45:00,42.8,31.5,30.31,WNW,302,0.0,0.0,64,0.00,,,0.00,Wunderground v.1.15,2013-01-23 07:45:00,
2013-01-23 02:55:00,42.5,31.9,30.31,WNW,302,0.0,0.0,66,0.00,,,0.00,Wunderground v.1.15,2013-01-23 07:55:00,
2013-01-23 03:05:00,42.2,31.6,30.30,WNW,302,0.0,0.0,66,0.00,,,0.00,Wunderground v.1.15,2013-01-23 08:05:00,
2013-01-23 03:10:00,42.2,31.6,30.31,WNW,302,0.0,0.0,66,0.00,,,0.00,Wunderground v.1.15,2013-01-23 08:10:00,
2013-01-23 03:20:00,42.3,32.1,30.30,WNW,302,0.0,0.0,67,0.00,,,0.00,Wunderground v.1.15,2013-01-23 08:20:00,
2013-01-23 03:30:00,42.4,32.2,30.30,WNW,302,0.0,0.0,67,0.00,,,0.00,Wunderground v.1.15,2013-01-23 08:30:00,
2013-01-23 03:35:00,42.4,31.8,30.30,WNW,302,0.0,0.0,66,0.00,,,0.00,Wunderground v.1.15,2013-01-23 08:35:00,
2013-01-23 03:45:00,42.3,31.7,30.31,WNW,302,0.0,0.0,66,0.00,,,0.00,Wunderground v.1.15,2013-01-23 08:45:00,
2013-01-23 03:55:00,42.2,31.6,30.31,WNW,302,0.0,0.0,66,0.00,,,0.00,Wunderground v.1.15,2013-01-23 08:55:00,
2013-01-23 04:00:00,42.1,31.6,30.31,WNW,302,0.0,0.0,66,0.00,,,0.00,Wunderground v.1.15,2013-01-23 09:00:00,
2013-01-23 04:10:00,41.9,31.4,30.31,WNW,302,0.0,0.0,66,0.00,,,0.00,Wunderground v.1.15,2013-01-23 09:10:00,
2013-01-23 04:15:00,41.9,31.4,30.31,WNW,302,0.0,0.0,66,0.00,,,0.00,Wunderground v.1.15,2013-01-23 09:15:00,
2013-01-23 04:25:00,41.8,31.3,30.31,WNW,302,0.0,0.0,66,0.00,,,0.00,Wunderground v.1.15,2013-01-23 09:25:00,
2013-01-23 04:35:00,41.7,31.2,30.31,WNW,302,0.0,0.0,66,0.00,,,0.00,Wunderground v.1.15,2013-01-23 09:35:00,
2013-01-23 04:45:00,41.5,31.4,30.31,WNW,302,0.0,0.0,67,0.00,,,0.00,Wunderground v.1.15,2013-01-23 09:45:00,
2013-01-23 04:50:00,41.2,31.4,30.31,WNW,302,0.0,0.0,68,0.00,,,0.00,Wunderground v.1.15,2013-01-23 09:50:00,
2013-01-23 05:00:00,40.9,31.1,30.31,WNW,302,0.0,0.0,68,0.00,,,0.00,Wunderground v.1.15,2013-01-23 10:00:00,
2013-01-23 05:10:00,40.6,31.2,30.31,WNW,302,0.0,0.0,69,0.00,,,0.00,Wunderground v.1.15,2013-01-23 10:10:00,
2013-01-23 05:15:00,40.7,31.3,30.31,WNW,302,0.0,0.0,69,0.00,,,0.00,Wunderground v.1.15,2013-01-23 10:15:00,
2013-01-23 05:25:00,40.7,31.0,30.32,NW,306,0.0,0.0,68,0.00,,,0.00,Wunderground v.1.15,2013-01-23 10:25:00,
2013-01-23 05:35:00,41.0,30.9,30.32,NW,321,0.0,0.0,67,0.00,,,0.00,Wunderground v.1.15,2013-01-23 10:35:00,
2013-01-23 05:45:00,41.0,30.5,30.32,NW,320,0.0,0.0,66,0.00,,,0.00,Wunderground v.1.15,2013-01-23 10:45:00,
2013-01-23 05:55:00,41.0,30.9,30.33,NW,319,0.0,0.0,67,0.00,,,0.00,Wunderground v.1.15,2013-01-23 10:55:00,
2013-01-23 06:05:00,40.9,30.8,30.33,NW,319,0.0,0.0,67,0.00,,,0.00,Wunderground v.1.15,2013-01-23 11:05:00,
2013-01-23 06:10:00,40.8,30.7,30.32,NW,319,0.0,1.0,67,0.00,,,0.00,Wunderground v.1.15,2013-01-23 11:10:00,
2013-01-23 06:20:00,40.6,30.9,30.33,NW,319,0.0,0.0,68,0.00,,,0.00,Wunderground v.1.15,2013-01-23 11:20:00,
2013-01-23 06:30:00,40.5,30.8,30.33,NW,321,0.0,0.0,68,0.00,,,0.00,Wunderground v.1.15,2013-01-23 11:30:00,
2013-01-23 06:40:00,40.4,31.0,30.34,NW,313,0.0,0.0,69,0.00,,,0.00,Wunderground v.1.15,2013-01-23 11:40:00,
2013-01-23 06:50:00,40.4,31.0,30.35,NW,325,1.0,1.0,69,0.00,,,0.00,Wunderground v.1.15,2013-01-23 11:50:00,
2013-01-23 06:55:00,40.4,31.0,30.35,NW,325,0.0,1.0,69,0.00,,,0.00,Wunderground v.1.15,2013-01-23 11:55:00,
2013-01-23 07:05:00,40.2,30.5,30.35,NW,319,0.0,0.0,68,0.00,,,0.00,Wunderground v.1.15,2013-01-23 12:05:00,
2013-01-23 07:15:00,40.0,30.6,30.35,NW,319,0.0,0.0,69,0.00,,,0.00,Wunderground v.1.15,2013-01-23 12:15:00,
2013-01-23 07:25:00,39.8,30.5,30.36,WNW,300,0.0,0.0,69,0.00,,,0.00,Wunderground v.1.15,2013-01-23 12:25:00,
2013-01-23 07:35:00,39.8,30.1,30.36,WNW,294,1.0,6.0,68,0.00,,,0.00,Wunderground v.1.15,2013-01-23 12:35:00,
2013-01-23 07:45:00,39.8,30.1,30.36,NNW,348,2.0,5.0,68,0.00,,,0.00,Wunderground v.1.15,2013-01-23 12:45:00,
2013-01-23 07:50:00,39.7,30.0,30.36,North,355,1.0,1.0,68,0.00,,,0.00,Wunderground v.1.15,2013-01-23 12:50:00,
2013-01-23 08:00:00,39.7,29.6,30.37,NNW,338,1.0,2.0,67,0.00,,,0.00,Wunderground v.1.15,2013-01-23 13:00:00,
2013-01-23 08:10:00,40.1,29.6,30.37,NW,323,1.0,2.0,66,0.00,,,0.00,Wunderground v.1.15,2013-01-23 13:10:00,
2013-01-23 08:15:00,40.3,29.5,30.37,NW,325,2.0,2.0,65,0.00,,,0.00,Wunderground v.1.15,2013-01-23 13:15:00,
2013-01-23 08:25:00,40.7,29.5,30.37,NW,322,1.0,6.0,64,0.00,,,0.00,Wunderground v.1.15,2013-01-23 13:25:00,
2013-01-23 08:35:00,41.3,29.3,30.38,NW,321,2.0,6.0,62,0.00,,,0.00,Wunderground v.1.15,2013-01-23 13:35:00,
2013-01-23 08:40:00,41.7,29.2,30.38,NW,323,4.0,4.0,61,0.00,,,0.00,Wunderground v.1.15,2013-01-23 13:40:00,
2013-01-23 08:50:00,42.4,29.1,30.39,NW,306,3.0,11.0,59,0.00,,,0.00,Wunderground v.1.15,2013-01-23 13:50:00,
2013-01-23 09:00:00,43.1,28.9,30.40,NNW,331,4.0,5.0,57,0.00,,,0.00,Wunderground v.1.15,2013-01-23 14:00:00,
2013-01-23 09:05:00,43.4,28.7,30.39,NW,317,3.0,6.0,56,0.00,,,0.00,Wunderground v.1.15,2013-01-23 14:05:00,
2013-01-23 09:15:00,43.9,29.6,30.40,NW,315,4.0,6.0,57,0.00,,,0.00,Wunderground v.1.15,2013-01-23 14:15:00,
2013-01-23 09:25:00,44.6,29.4,30.40,NW,318,5.0,5.0,55,0.00,,,0.00,Wunderground v.1.15,2013-01-23 14:25:00,
2013-01-23 09:35:00,45.4,29.3,30.40,NNW,346,3.0,4.0,53,0.00,,,0.00,Wunderground v.1.15,2013-01-23 14:35:00,
2013-01-23 09:45:00,46.2,29.5,30.41,NNW,340,2.0,2.0,52,0.00,,,0.00,Wunderground v.1.15,2013-01-23 14:45:00,
2013-01-23 09:50:00,46.6,29.9,30.41,NW,316,3.0,3.0,52,0.00,,,0.00,Wunderground v.1.15,2013-01-23 14:50:00,
2013-01-23 10:00:00,47.3,29.1,30.41,NW,322,4.0,4.0,49,0.00,,,0.00,Wunderground v.1.15,2013-01-23 15:00:00,
2013-01-23 10:10:00,48.1,29.3,30.42,NE,54,2.0,2.0,48,0.00,,,0.00,Wunderground v.1.15,2013-01-23 15:10:00,
2013-01-23 10:15:00,48.4,28.5,30.41,NW,321,2.0,5.0,46,0.00,,,0.00,Wunderground v.1.15,2013-01-23 15:15:00,
2013-01-23 10:25:00,48.7,28.8,30.41,NW,325,5.0,6.0,46,0.00,,,0.00,Wunderground v.1.15,2013-01-23 15:25:00,
2013-01-23 10:35:00,49.4,28.9,30.42,NNW,336,3.0,6.0,45,0.00,,,0.00,Wunderground v.1.15,2013-01-23 15:35:00,
2013-01-23 10:40:00,49.7,28.6,30.42,WNW,294,2.0,4.0,44,0.00,,,0.00,Wunderground v.1.15,2013-01-23 15:40:00,
2013-01-23 10:50:00,50.2,29.7,30.41,NW,319,3.0,7.0,45,0.00,,,0.00,Wunderground v.1.15,2013-01-23 15:50:00,
2013-01-23 11:00:00,50.8,29.6,30.41,NW,315,2.0,2.0,44,0.00,,,0.00,Wunderground v.1.15,2013-01-23 16:00:00,
2013-01-23 11:05:00,51.2,30.0,30.41,NNW,339,1.0,4.0,44,0.00,,,0.00,Wunderground v.1.15,2013-01-23 16:05:00,
2013-01-23 11:15:00,51.9,30.1,30.41,NW,313,1.0,5.0,43,0.00,,,0.00,Wunderground v.1.15,2013-01-23 16:15:00,
2013-01-23 11:25:00,52.5,31.2,30.40,NW,324,2.0,5.0,44,0.00,,,0.00,Wunderground v.1.15,2013-01-23 16:25:00,
2013-01-23 11:35:00,52.9,30.4,30.40,NNW,340,1.0,2.0,42,0.00,,,0.00,Wunderground v.1.15,2013-01-23 16:35:00,
2013-01-23 11:45:00,53.1,30.6,30.39,NW,315,3.0,6.0,42,0.00,,,0.00,Wunderground v.1.15,2013-01-23 16:45:00,
2013-01-23 11:50:00,53.6,30.4,30.39,NW,322,2.0,4.0,41,0.00,,,0.00,Wunderground v.1.15,2013-01-23 16:50:00,
2013-01-23 12:00:00,54.4,29.9,30.39,WNW,300,2.0,4.0,39,0.00,,,0.00,Wunderground v.1.15,2013-01-23 17:00:00,
2013-01-23 12:05:00,54.5,30.0,30.38,NW,313,3.0,4.0,39,0.00,,,0.00,Wunderground v.1.15,2013-01-23 17:05:00,
2013-01-23 12:15:00,54.8,29.7,30.37,NW,314,4.0,4.0,38,0.00,,,0.00,Wunderground v.1.15,2013-01-23 17:15:00,
2013-01-23 12:25:00,55.0,31.7,30.37,NNW,343,2.0,4.0,41,0.00,,,0.00,Wunderground v.1.15,2013-01-23 17:25:00,
2013-01-23 12:35:00,55.6,30.4,30.36,NW,319,2.0,4.0,38,0.00,,,0.00,Wunderground v.1.15,2013-01-23 17:35:00,
2013-01-23 12:40:00,55.7,31.1,30.36,NE,37,2.0,2.0,39,0.00,,,0.00,Wunderground v.1.15,2013-01-23 17:40:00,
2013-01-23 12:50:00,55.8,31.8,30.35,NW,307,3.0,4.0,40,0.00,,,0.00,Wunderground v.1.15,2013-01-23 17:50:00,
2013-01-23 13:00:00,56.4,31.1,30.34,NW,325,3.0,3.0,38,0.00,,,0.00,Wunderground v.1.15,2013-01-23 18:00:00,
2013-01-23 13:05:00,56.6,31.9,30.33,NNE,30,3.0,3.0,39,0.00,,,0.00,Wunderground v.1.15,2013-01-23 18:05:00,
2013-01-23 13:15:00,57.2,32.4,30.33,NW,312,2.0,8.0,39,0.00,,,0.00,Wunderground v.1.15,2013-01-23 18:15:00,
2013-01-23 13:25:00,57.2,31.8,30.32,NW,323,4.0,7.0,38,0.00,,,0.00,Wunderground v.1.15,2013-01-23 18:25:00,
2013-01-23 13:35:00,57.7,32.2,30.32,NNE,12,3.0,5.0,38,0.00,,,0.00,Wunderground v.1.15,2013-01-23 18:35:00,
2013-01-23 13:45:00,58.0,33.2,30.31,NW,325,3.0,4.0,39,0.00,,,0.00,Wunderground v.1.15,2013-01-23 18:45:00,
2013-01-23 13:50:00,58.4,33.5,30.31,NNW,330,3.0,4.0,39,0.00,,,0.00,Wunderground v.1.15,2013-01-23 18:50:00,
2013-01-23 14:00:00,58.7,33.8,30.30,NNW,342,3.0,3.0,39,0.00,,,0.00,Wunderground v.1.15,2013-01-23 19:00:00,
2013-01-23 14:05:00,59.0,33.4,30.30,NW,319,3.0,4.0,38,0.00,,,0.00,Wunderground v.1.15,2013-01-23 19:05:00,
2013-01-23 14:15:00,59.3,34.3,30.30,WNW,298,4.0,4.0,39,0.00,,,0.00,Wunderground v.1.15,2013-01-23 19:15:00,
2013-01-23 14:25:00,59.5,34.5,30.29,NW,316,1.0,3.0,39,0.00,,,0.00,Wunderground v.1.15,2013-01-23 19:25:00,
2013-01-23 14:35:00,59.8,34.1,30.29,WNW,300,4.0,7.0,38,0.00,,,0.00,Wunderground v.1.15,2013-01-23 19:35:00,
2013-01-23 14:40:00,59.7,34.7,30.29,WNW,298,3.0,3.0,39,0.00,,,0.00,Wunderground v.1.15,2013-01-23 19:40:00,
2013-01-23 14:50:00,60.1,35.7,30.28,NW,311,2.0,7.0,40,0.00,,,0.00,Wunderground v.1.15,2013-01-23 19:50:00,
2013-01-23 15:00:00,60.4,35.3,30.28,NW,325,3.0,5.0,39,0.00,,,0.00,Wunderground v.1.15,2013-01-23 20:00:00,
2013-01-23 15:05:00,60.6,36.1,30.28,SW,234,3.0,5.0,40,0.00,,,0.00,Wunderground v.1.15,2013-01-23 20:05:00,
2013-01-23 15:10:00,60.9,36.4,30.28,NW,322,3.0,3.0,40,0.00,,,0.00,Wunderground v.1.15,2013-01-23 20:10:00,
2013-01-23 15:20:00,61.4,37.5,30.28,WNW,300,1.0,4.0,41,0.00,,,0.00,Wunderground v.1.15,2013-01-23 20:20:00,
2013-01-23 15:25:00,61.5,36.9,30.28,NW,311,3.0,4.0,40,0.00,,,0.00,Wunderground v.1.15,2013-01-23 20:25:00,
2013-01-23 15:30:00,61.4,36.8,30.28,NNW,331,5.0,6.0,40,0.00,,,0.00,Wunderground v.1.15,2013-01-23 20:30:00,
2013-01-23 15:40:00,61.6,37.7,30.28,NW,306,4.0,5.0,41,0.00,,,0.00,Wunderground v.1.15,2013-01-23 20:40:00,
2013-01-23 15:50:00,61.6,37.0,30.28,West,280,5.0,5.0,40,0.00,,,0.00,Wunderground v.1.15,2013-01-23 20:50:00,
2013-01-23 16:00:00,61.9,37.9,30.28,WNW,297,3.0,5.0,41,0.00,,,0.00,Wunderground v.1.15,2013-01-23 21:00:00,
2013-01-23 16:05:00,62.0,38.0,30.27,WNW,289,4.0,5.0,41,0.00,,,0.00,Wunderground v.1.15,2013-01-23 21:05:00,
2013-01-23 16:15:00,62.3,38.3,30.27,WNW,289,0.0,2.0,41,0.00,,,0.00,Wunderground v.1.15,2013-01-23 21:15:00,
2013-01-23 16:20:00,62.3,38.3,30.27,WNW,296,0.0,0.0,41,0.00,,,0.00,Wunderground v.1.15,2013-01-23 21:20:00,
2013-01-23 16:30:00,62.0,38.6,30.27,NW,309,2.0,2.0,42,0.00,,,0.00,Wunderground v.1.15,2013-01-23 21:30:00,
2013-01-23 16:35:00,61.9,38.5,30.27,WNW,284,3.0,4.0,42,0.00,,,0.00,Wunderground v.1.15,2013-01-23 21:35:00,
2013-01-23 16:45:00,61.9,39.1,30.27,WNW,297,2.0,2.0,43,0.00,,,0.00,Wunderground v.1.15,2013-01-23 21:45:00,
2013-01-23 16:55:00,61.9,39.1,30.28,WNW,298,3.0,5.0,43,0.00,,,0.00,Wunderground v.1.15,2013-01-23 21:55:00,
2013-01-23 17:05:00,61.5,38.8,30.28,NW,308,2.0,2.0,43,0.00,,,0.00,Wunderground v.1.15,2013-01-23 22:05:00,
2013-01-23 17:10:00,61.4,39.3,30.27,West,279,2.0,2.0,44,0.00,,,0.00,Wunderground v.1.15,2013-01-23 22:10:00,
2013-01-23 17:20:00,61.0,38.9,30.28,WNW,288,3.0,4.0,44,0.00,,,0.00,Wunderground v.1.15,2013-01-23 22:20:00,
2013-01-23 17:30:00,60.7,39.2,30.28,WNW,292,2.0,2.0,45,0.00,,,0.00,Wunderground v.1.15,2013-01-23 22:30:00,
2013-01-23 17:35:00,60.6,39.1,30.28,WNW,300,1.0,5.0,45,0.00,,,0.00,Wunderground v.1.15,2013-01-23 22:35:00,
2013-01-23 17:45:00,60.2,38.8,30.28,WNW,295,2.0,2.0,45,0.00,,,0.00,Wunderground v.1.15,2013-01-23 22:45:00,
2013-01-23 17:55:00,59.8,39.5,30.28,WNW,295,0.0,1.0,47,0.00,,,0.00,Wunderground v.1.15,2013-01-23 22:55:00,
2013-01-23 18:00:00,59.5,39.2,30.28,West,271,0.0,1.0,47,0.00,,,0.00,Wunderground v.1.15,2013-01-23 23:00:00,
2013-01-23 18:10:00,59.0,39.3,30.28,West,272,0.0,0.0,48,0.00,,,0.00,Wunderground v.1.15,2013-01-23 23:10:00,
2013-01-23 18:20:00,58.4,38.8,30.28,West,272,0.0,0.0,48,0.00,,,0.00,Wunderground v.1.15,2013-01-23 23:20:00,
2013-01-23 18:25:00,58.2,39.6,30.28,West,272,0.0,0.0,50,0.00,,,0.00,Wunderground v.1.15,2013-01-23 23:25:00,
2013-01-23 18:35:00,57.5,39.0,30.28,West,272,0.0,0.0,50,0.00,,,0.00,Wunderground v.1.15,2013-01-23 23:35:00,
2013-01-23 18:45:00,57.1,39.1,30.28,West,272,0.0,0.0,51,0.00,,,0.00,Wunderground v.1.15,2013-01-23 23:45:00,
2013-01-23 18:50:00,56.8,39.4,30.28,West,272,0.0,0.0,52,0.00,,,0.00,Wunderground v.1.15,2013-01-23 23:50:00,
2013-01-23 19:00:00,56.0,39.1,30.29,West,272,0.0,0.0,53,0.00,,,0.00,Wunderground v.1.15,2013-01-24 00:00:00,
2013-01-23 19:05:00,55.7,39.3,30.28,West,272,0.0,0.0,54,0.00,,,0.00,Wunderground v.1.15,2013-01-24 00:05:00,
2013-01-23 19:10:00,55.3,39.4,30.28,West,272,0.0,0.0,55,0.00,,,0.00,Wunderground v.1.15,2013-01-24 00:10:00,
2013-01-23 19:20:00,54.5,39.1,30.28,West,272,0.0,0.0,56,0.00,,,0.00,Wunderground v.1.15,2013-01-24 00:20:00,
2013-01-23 19:30:00,53.9,39.0,30.28,West,272,0.0,0.0,57,0.00,,,0.00,Wunderground v.1.15,2013-01-24 00:30:00,
2013-01-23 19:35:00,53.6,39.2,30.28,West,272,0.0,0.0,58,0.00,,,0.00,Wunderground v.1.15,2013-01-24 00:35:00,
2013-01-23 19:40:00,53.4,39.0,30.28,West,272,0.0,0.0,58,0.00,,,0.00,Wunderground v.1.15,2013-01-24 00:40:00,
2013-01-23 19:50:00,53.0,39.0,30.27,West,272,0.0,0.0,59,0.00,,,0.00,Wunderground v.1.15,2013-01-24 00:50:00,
2013-01-23 20:00:00,52.7,39.2,30.28,West,272,0.0,0.0,60,0.00,,,0.00,Wunderground v.1.15,2013-01-24 01:00:00,
2013-01-23 20:10:00,52.4,39.3,30.28,West,272,0.0,0.0,61,0.00,,,0.00,Wunderground v.1.15,2013-01-24 01:10:00,
2013-01-23 20:20:00,51.9,39.3,30.28,West,272,0.0,0.0,62,0.00,,,0.00,Wunderground v.1.15,2013-01-24 01:20:00,
2013-01-23 20:25:00,51.5,39.3,30.28,West,272,0.0,0.0,63,0.00,,,0.00,Wunderground v.1.15,2013-01-24 01:25:00,
2013-01-23 20:35:00,51.1,39.3,30.28,West,272,0.0,0.0,64,0.00,,,0.00,Wunderground v.1.15,2013-01-24 01:35:00,
2013-01-23 20:45:00,50.7,39.7,30.28,West,272,0.0,0.0,66,0.00,,,0.00,Wunderground v.1.15,2013-01-24 01:45:00,
2013-01-23 20:55:00,50.5,39.9,30.28,West,272,0.0,0.0,67,0.00,,,0.00,Wunderground v.1.15,2013-01-24 01:55:00,
2013-01-23 21:05:00,50.3,39.8,30.29,West,272,0.0,0.0,67,0.00,,,0.00,Wunderground v.1.15,2013-01-24 02:05:00,
2013-01-23 21:15:00,50.0,40.2,30.29,West,272,0.0,0.0,69,0.00,,,0.00,Wunderground v.1.15,2013-01-24 02:15:00,
2013-01-23 21:20:00,50.0,40.6,30.29,West,272,0.0,0.0,70,0.00,,,0.00,Wunderground v.1.15,2013-01-24 02:20:00,
2013-01-23 21:30:00,49.7,41.4,30.29,West,272,0.0,0.0,73,0.00,,,0.00,Wunderground v.1.15,2013-01-24 02:30:00,
2013-01-23 21:35:00,49.5,41.2,30.29,West,272,0.0,0.0,73,0.00,,,0.00,Wunderground v.1.15,2013-01-24 02:35:00,
2013-01-23 21:45:00,49.1,40.8,30.29,West,272,0.0,0.0,73,0.00,,,0.00,Wunderground v.1.15,2013-01-24 02:45:00,
2013-01-23 21:50:00,48.8,40.5,30.29,West,272,0.0,0.0,73,0.00,,,0.00,Wunderground v.1.15,2013-01-24 02:50:00,
2013-01-23 22:00:00,48.7,40.4,30.30,West,272,0.0,0.0,73,0.00,,,0.00,Wunderground v.1.15,2013-01-24 03:00:00,
2013-01-23 22:05:00,48.6,40.3,30.29,West,272,0.0,0.0,73,0.00,,,0.00,Wunderground v.1.15,2013-01-24 03:05:00,
2013-01-23 22:15:00,48.4,40.1,30.29,West,272,0.0,0.0,73,0.00,,,0.00,Wunderground v.1.15,2013-01-24 03:15:00,
2013-01-23 22:25:00,48.7,40.1,30.29,West,272,0.0,0.0,72,0.00,,,0.00,Wunderground v.1.15,2013-01-24 03:25:00,
2013-01-23 22:35:00,49.1,40.1,30.29,West,272,0.0,0.0,71,0.00,,,0.00,Wunderground v.1.15,2013-01-24 03:35:00,
2013-01-23 22:40:00,49.2,40.2,30.29,West,272,0.0,0.0,71,0.00,,,0.00,Wunderground v.1.15,2013-01-24 03:40:00,
2013-01-23 22:50:00,49.4,40.0,30.29,West,272,0.0,0.0,70,0.00,,,0.00,Wunderground v.1.15,2013-01-24 03:50:00,
2013-01-23 23:00:00,49.2,40.2,30.29,West,272,0.0,0.0,71,0.00,,,0.00,Wunderground v.1.15,2013-01-24 04:00:00,
2013-01-23 23:05:00,49.1,40.1,30.29,West,272,0.0,0.0,71,0.00,,,0.00,Wunderground v.1.15,2013-01-24 04:05:00,
2013-01-23 23:15:00,48.9,39.9,30.29,West,273,0.0,0.0,71,0.00,,,0.00,Wunderground v.1.15,2013-01-24 04:15:00,
2013-01-23 23:25:00,48.8,39.8,30.29,West,273,0.0,0.0,71,0.00,,,0.00,Wunderground v.1.15,2013-01-24 04:25:00,
2013-01-23 23:30:00,48.8,39.8,30.28,West,273,0.0,0.0,71,0.00,,,0.00,Wunderground v.1.15,2013-01-24 04:30:00,
2013-01-23 23:35:00,48.7,40.1,30.28,West,273,0.0,0.0,72,0.00,,,0.00,Wunderground v.1.15,2013-01-24 04:35:00,
2013-01-23 23:45:00,48.5,39.9,30.28,West,273,0.0,0.0,72,0.00,,,0.00,Wunderground v.1.15,2013-01-24 04:45:00,
2013-01-23 23:50:00,48.5,39.9,30.27,West,273,0.0,0.0,72,0.00,,,0.00,Wunderground v.1.15,2013-01-24 04:50:00,